Latest Weather Observations for Perth

IDW60801

Issued at 9:32 pm WST Tuesday 12 December 2017 (issued every 30 minutes, with the page automatically refreshed every 10 minutes)

About weather observations | Map of weather stations | Latest weather observations for WA | Other Formats
Station Details ID: 009225 Name: PERTH METRO Lat: -31.92 Lon: 115.87 Height: 24.9 m
Data from the previous 72 hours. | See also: Recent months at Perth
Date/Time
WST
Temp
°C
App
Temp
°C
Dew
Point
°C
Rel
Hum
%
Delta-T
°C
Wind Press
QNH
hPa
Press
MSL
hPa
Rain since
9am
mm
Dir  Spd
km/h
Gust
km/h
Spd
kts
Gust
kts
12/09:30pm 20.1 19.1 15.7 76 2.6 SW 15 32 8 17 1014.7 1014.6 0.0
12/09:00pm 20.2 20.0 15.8 76 2.6 SW 11 22 6 12 1014.4 1014.3 0.0
12/08:30pm 20.5 18.9 16.1 76 2.6 SW 19 37 10 20 1014.0 1013.9 0.0
12/08:00pm 20.5 18.9 16.1 76 2.6 SSW 19 35 10 19 1013.8 1013.7 0.0
12/07:30pm 20.7 18.9 15.9 74 2.9 SW 20 37 11 20 1013.4 1013.3 0.0
12/07:00pm 21.1 19.5 15.9 72 3.1 SW 19 35 10 19 1013.0 1012.8 0.0
12/06:30pm 21.6 19.4 15.9 70 3.4 SW 22 41 12 22 1012.6 1012.4 0.0
12/06:00pm 22.3 20.5 15.9 67 3.9 SW 20 33 11 18 1012.3 1012.1 0.0
12/05:30pm 23.0 20.9 16.3 66 4.1 SW 22 37 12 20 1011.8 1011.7 0.0
12/05:00pm 23.6 21.8 16.1 62 4.6 SSW 20 33 11 18 1011.5 1011.4 0.0
12/04:30pm 24.1 22.1 16.4 62 4.7 SW 22 39 12 21 1011.3 1011.2 0.0
12/04:00pm 24.4 22.2 15.9 59 5.2 SSW 22 35 12 19 1011.5 1011.4 0.0
12/03:30pm 24.9 22.5 16.3 59 5.3 SSW 24 41 13 22 1011.6 1011.5 0.0
12/03:00pm 25.0 23.0 15.6 56 5.7 SSW 20 43 11 23 1011.5 1011.4 0.0
12/02:30pm 25.3 23.2 15.3 54 6.0 SW 20 41 11 22 1011.4 1011.3 0.0
12/02:00pm 25.4 22.8 14.8 52 6.4 SW 22 41 12 22 1011.4 1011.3 0.0
12/01:30pm 26.5 24.6 15.2 49 6.8 SSW 19 33 10 18 1011.2 1011.1 0.0
12/01:00pm 25.5 23.1 15.5 54 6.1 SW 22 37 12 20 1011.2 1011.1 0.0
12/12:30pm 26.1 24.5 16.6 55 5.9 SW 20 35 11 19 1011.2 1011.1 0.0
12/12:00pm 26.7 25.8 16.9 55 6.1 SW 17 28 9 15 1011.1 1011.0 0.0
12/11:30am 26.4 25.8 17.5 58 5.6 SW 17 24 9 13 1011.1 1011.0 0.0
12/11:00am 26.1 26.5 18.2 61 5.0 SSW 13 24 7 13 1010.9 1010.8 0.0
12/10:30am 25.2 24.5 17.4 62 4.9 SSW 17 30 9 16 1010.9 1010.8 0.0
12/10:00am 25.4 25.0 18.1 64 4.6 SSW 17 30 9 16 1011.1 1011.0 0.0
12/09:30am 25.9 26.6 18.8 65 4.5 SSW 13 24 7 13 1010.9 1010.8 0.0
12/09:00am 25.2 25.5 17.9 64 4.6 SSW 13 24 7 13 1010.8 1010.7 0.0
12/08:30am 24.5 25.3 18.2 68 4.0 SSW 11 19 6 10 1010.6 1010.5 0.0
12/08:00am 24.0 25.5 18.9 73 3.2 SSW 9 13 5 7 1010.5 1010.4 0.0
12/07:30am 22.7 24.9 19.5 82 2.0 SW 7 11 4 6 1010.4 1010.3 0.0
12/07:00am 22.4 24.9 19.9 86 1.6 SSW 6 9 3 5 1010.2 1010.1 0.0
12/06:30am 21.6 24.9 19.0 85 1.6 CALM 0 4 0 2 1009.9 1009.8 0.0
12/06:00am 21.1 24.4 19.0 88 1.3 CALM 0 0 0 0 1009.6 1009.5 0.0
12/05:30am 20.6 23.9 19.1 91 0.9 CALM 0 0 0 0 1009.3 1009.2 0.0
12/05:00am 20.5 23.8 19.0 91 0.9 CALM 0 0 0 0 1009.0 1008.9 0.0
12/04:30am 20.6 23.7 18.7 89 1.2 CALM 0 0 0 0 1008.8 1008.7 0.0
12/04:00am 21.2 23.2 19.1 88 1.3 S 7 9 4 5 1008.5 1008.4 0.0
12/03:30am 21.0 24.4 19.3 90 1.1 CALM 0 0 0 0 1008.5 1008.4 0.0
12/03:00am 20.7 23.9 18.8 89 1.2 CALM 0 0 0 0 1008.5 1008.4 0.0
12/02:30am 20.8 23.2 18.7 88 1.3 WSW 4 7 2 4 1008.2 1008.1 0.0
12/02:00am 20.7 23.5 18.8 89 1.2 WSW 2 7 1 4 1008.4 1008.3 0.0
12/01:30am 20.4 23.1 18.7 90 1.1 WSW 2 6 1 3 1008.3 1008.2 0.0
12/01:00am 20.7 23.1 18.8 89 1.2 SW 4 7 2 4 1008.4 1008.3 0.0
12/12:30am 20.6 23.7 18.7 89 1.2 CALM 0 0 0 0 1008.4 1008.3 0.0
12/12:00am 21.1 24.2 18.7 86 1.5 CALM 0 0 0 0 1008.7 1008.6 0.0
 
Date/Time
WST
Temp
°C
App
Temp
°C
Dew
Point
°C
Rel
Hum
%
Delta-T
°C
Wind Press
QNH
hPa
Press
MSL
hPa
Rain since
9am
mm
Dir  Spd
km/h
Gust
km/h
Spd
kts
Gust
kts
11/11:30pm 21.5 24.2 18.7 84 1.8 SW 2 7 1 4 1009.0 1008.9 0.0
11/11:00pm 21.6 23.4 18.8 84 1.8 SSW 7 15 4 8 1009.5 1009.4 0.0
11/10:30pm 21.6 23.4 18.8 84 1.8 SW 7 13 4 7 1009.4 1009.3 0.0
11/10:00pm 21.7 23.8 18.9 84 1.8 W 6 9 3 5 1009.2 1009.1 0.0
11/09:30pm 21.7 23.5 18.7 83 1.9 WSW 7 9 4 5 1009.2 1009.1 0.0
11/09:00pm 21.9 23.8 18.9 83 1.9 SW 7 11 4 6 1009.0 1008.9 0.0
11/08:30pm 22.0 23.2 19.0 83 1.9 WSW 11 22 6 12 1009.1 1009.0 0.0
11/08:00pm 22.6 24.1 18.8 79 2.4 W 9 13 5 7 1008.8 1008.7 0.0
11/07:30pm 23.9 24.8 18.3 71 3.5 WSW 11 20 6 11 1008.7 1008.6 0.0
11/07:00pm 25.2 26.3 17.1 60 5.0 SW 7 17 4 9 1008.2 1008.1 0.0
11/06:30pm 25.9 26.5 16.7 57 5.7 SW 9 19 5 10 1008.2 1008.1 0.0
11/06:00pm 27.6 26.9 15.3 47 7.5 SW 13 22 7 12 1007.6 1007.5 0.0
11/05:30pm 27.9 27.0 14.9 45 7.9 WSW 13 20 7 11 1007.4 1007.3 0.0
11/05:00pm 28.5 27.8 15.4 45 8.0 WSW 13 22 7 12 1007.6 1007.5 0.0
11/04:30pm 30.9 29.7 14.1 36 10.2 WSW 13 20 7 11 1007.4 1007.3 0.0
11/04:00pm 30.9 29.1 13.2 34 10.6 W 15 22 8 12 1007.2 1007.1 0.0
11/03:30pm 31.8 29.4 12.6 31 11.4 W 17 28 9 15 1006.8 1006.7 0.0
11/03:00pm 32.3 30.0 13.0 31 11.6 WSW 17 28 9 15 1006.6 1006.5 0.0
11/02:30pm 31.9 29.7 13.2 32 11.2 W 17 32 9 17 1006.4 1006.3 0.0
11/02:00pm 33.5 32.3 14.0 30 11.9 W 13 24 7 13 1006.6 1006.5 0.0
11/01:30pm 32.2 30.2 13.9 33 11.1 WSW 17 28 9 15 1006.8 1006.7 0.0
11/01:00pm 32.9 31.7 14.0 32 11.5 WSW 13 22 7 12 1006.9 1006.8 0.0
11/12:30pm 33.8 32.5 13.8 30 12.2 WSW 13 19 7 10 1007.0 1006.9 0.0
11/12:00pm 34.8 32.7 13.6 28 13.0 WSW 17 24 9 13 1007.2 1007.1 0.0
11/11:30am 37.1 37.0 13.8 25 14.4 NNE 7 15 4 8 1007.4 1007.3 0.0
11/11:00am 36.6 36.5 13.4 25 14.2 WSW 6 11 3 6 1007.9 1007.8 0.0
11/10:30am 35.4 35.0 13.0 26 13.6 NNW 7 13 4 7 1008.3 1008.2 0.0
11/10:00am 34.0 33.2 12.9 28 12.7 N 9 17 5 9 1008.6 1008.5 0.0
11/09:30am 33.4 32.8 14.5 32 11.6 NNE 11 19 6 10 1008.9 1008.8 0.0
11/09:00am 32.8 32.5 13.4 30 11.7 NE 7 13 4 7 1009.3 1009.2 0.0
11/08:30am 31.1 29.9 12.9 32 10.8 NE 11 17 6 9 1009.7 1009.6 0.0
11/08:00am 30.0 29.7 13.3 36 10.0 NE 7 15 4 8 1009.9 1009.8 0.0
11/07:30am 28.7 28.6 13.8 40 8.9 ENE 7 11 4 6 1010.2 1010.1 0.0
11/07:00am 27.6 28.6 15.3 47 7.5 ENE 4 9 2 5 1010.1 1010.0 0.0
11/06:30am 23.5 24.9 16.3 64 4.4 W 4 7 2 4 1010.1 1010.0 0.0
11/06:00am 20.0 22.4 17.0 83 1.8 CALM 0 0 0 0 1009.8 1009.7 0.0
11/05:30am 19.0 21.2 16.6 86 1.4 CALM 0 0 0 0 1009.5 1009.4 0.0
11/05:00am 19.0 21.2 16.4 85 1.6 CALM 0 0 0 0 1009.5 1009.4 0.0
11/04:30am 19.4 21.7 16.8 85 1.6 CALM 0 0 0 0 1009.5 1009.4 0.0
11/04:00am 19.7 22.1 16.9 84 1.7 CALM 0 0 0 0 1009.4 1009.3 0.0
11/03:30am 19.7 22.1 16.9 84 1.7 CALM 0 0 0 0 1009.4 1009.3 0.0
11/03:00am 20.1 22.5 17.1 83 1.8 CALM 0 0 0 0 1009.5 1009.4 0.0
11/02:30am 20.4 22.8 17.0 81 2.1 CALM 0 0 0 0 1009.5 1009.4 0.0
11/02:00am 21.1 23.6 17.3 79 2.3 CALM 0 0 0 0 1009.7 1009.6 0.0
11/01:30am 21.1 23.7 17.5 80 2.2 CALM 0 0 0 0 1010.1 1010.0 0.0
11/01:00am 21.0 23.4 17.0 78 2.4 CALM 0 7 0 4 1010.2 1010.1 0.0
11/12:30am 21.8 24.2 17.0 74 2.9 CALM 0 0 0 0 1010.1 1010.0 0.0
11/12:00am 22.1 24.4 16.8 72 3.2 CALM 0 0 0 0 1010.3 1010.2 0.0
 
Date/Time
WST
Temp
°C
App
Temp
°C
Dew
Point
°C
Rel
Hum
%
Delta-T
°C
Wind Press
QNH
hPa
Press
MSL
hPa
Rain since
9am
mm
Dir  Spd
km/h
Gust
km/h
Spd
kts
Gust
kts
10/11:30pm 23.0 25.1 16.3 66 4.1 CALM 0 0 0 0 1010.9 1010.8 0.0
10/11:00pm 23.5 25.7 16.5 65 4.3 CALM 0 0 0 0 1011.1 1011.0 0.0
10/10:30pm 24.7 26.8 16.2 59 5.2 CALM 0 6 0 3 1011.4 1011.3 0.0
10/10:00pm 25.4 26.0 15.7 55 5.9 SSW 7 13 4 7 1011.5 1011.4 0.0
10/09:30pm 25.7 25.9 15.7 54 6.1 S 9 13 5 7 1011.7 1011.6 0.0
10/09:00pm 26.2 26.7 15.0 50 6.8 S 6 13 3 7 1011.7 1011.6 0.0
10/08:30pm 26.8 27.1 14.9 48 7.2 SSW 7 13 4 7 1011.4 1011.3 0.0
10/08:00pm 27.2 27.0 14.6 46 7.6 SSW 9 13 5 7 1011.2 1011.1 0.0
10/07:30pm 27.7 27.4 14.3 43 8.0 SSW 9 19 5 10 1010.7 1010.6 0.0
10/07:00pm 28.2 28.0 14.8 44 8.1 SW 9 15 5 8 1010.3 1010.2 0.0
10/06:30pm 28.4 27.3 14.3 42 8.5 SSW 13 22 7 12 1010.0 1009.9 0.0
10/06:00pm 29.6 29.0 14.6 40 9.1 SSW 11 20 6 11 1010.1 1010.0 0.0
10/05:30pm 30.2 29.1 14.3 38 9.6 SW 13 28 7 15 1010.0 1009.9 0.0
10/05:00pm 31.0 29.5 14.2 36 10.2 SW 15 22 8 12 1009.8 1009.7 0.0
10/04:30pm 30.7 28.2 13.5 35 10.3 SW 19 28 10 15 1009.7 1009.6 0.0
10/04:00pm 32.1 30.0 14.7 35 10.7 SW 19 28 10 15 1009.8 1009.7 0.0
10/03:30pm 34.2 33.4 15.1 31 11.9 WSW 13 24 7 13 1009.9 1009.8 0.0
10/03:00pm 34.6 33.0 14.0 29 12.6 W 15 28 8 15 1010.0 1009.9 0.0
10/02:30pm 35.4 33.1 11.7 23 14.1 W 15 26 8 14 1010.1 1010.0 0.0
10/02:00pm 36.1 34.4 12.3 24 14.3 WSW 13 22 7 12 1010.2 1010.1 0.0
10/01:30pm 37.0 35.9 11.8 22 15.1 SSW 9 20 5 11 1010.4 1010.3 0.0
10/01:00pm 36.9 36.5 13.0 24 14.6 W 7 13 4 7 1010.7 1010.6 0.0
10/12:30pm 35.2 34.4 12.8 26 13.5 WNW 9 17 5 9 1010.7 1010.6 0.0
10/12:00pm 34.5 33.7 11.6 25 13.6 N 7 13 4 7 1011.1 1011.0 0.0
10/11:30am 34.0 32.1 11.8 26 13.1 NNE 13 22 7 12 1011.7 1011.6 0.0
10/11:00am 33.8 32.0 13.3 29 12.4 NNE 15 26 8 14 1012.1 1012.0 0.0
10/10:30am 33.0 31.3 13.6 31 11.8 NNE 15 22 8 12 1012.5 1012.3 0.0
10/10:00am 32.6 30.7 14.2 32 11.2 NNE 17 32 9 17 1012.7 1012.5 0.0
10/09:30am 32.1 31.2 13.8 33 11.1 NE 11 20 6 11 1012.4 1012.2 0.0
10/09:00am 31.2 30.7 13.9 35 10.5 ENE 9 15 5 8 1012.5 1012.3 0.0
10/08:30am 29.8 29.5 14.4 39 9.3 NE 9 15 5 8 1012.7 1012.5 0.0
10/08:00am 28.2 27.1 14.4 42 8.3 NE 13 19 7 10 1013.1 1012.9 0.0
10/07:30am 26.9 26.6 14.3 46 7.5 NE 9 13 5 7 1012.8 1012.6 0.0
10/07:00am 25.7 27.4 15.1 52 6.4 CALM 0 6 0 3 1012.4 1012.2 0.0
10/06:30am 21.5 23.2 15.1 67 3.8 CALM 0 4 0 2 1012.0 1011.9 0.0
10/06:00am 18.4 19.5 14.7 79 2.1 SSE 2 6 1 3 1012.0 1011.9 0.0
10/05:30am 17.4 19.0 15.0 86 1.4 CALM 0 0 0 0 1011.8 1011.7 0.0
10/05:00am 17.2 18.8 15.0 87 1.3 CALM 0 0 0 0 1011.8 1011.7 0.0
10/04:30am 17.4 19.0 15.0 86 1.4 CALM 0 0 0 0 1011.7 1011.6 0.0
10/04:00am 17.6 19.3 15.2 86 1.4 CALM 0 0 0 0 1011.6 1011.5 0.0
10/03:30am 17.8 19.5 15.2 85 1.5 CALM 0 0 0 0 1011.3 1011.2 0.0
10/03:00am 18.2 20.0 15.5 84 1.6 CALM 0 0 0 0 1011.1 1011.0 0.0
10/02:30am 18.5 20.3 15.6 83 1.7 CALM 0 0 0 0 1010.9 1010.8 0.0
10/02:00am 18.8 20.8 16.0 84 1.7 CALM 0 0 0 0 1011.2 1011.1 0.0
10/01:30am 19.1 20.6 15.8 81 2.0 SSE 2 6 1 3 1011.2 1011.1 0.0
10/01:00am 19.3 21.3 16.0 81 2.0 CALM 0 0 0 0 1011.1 1011.0 0.0
10/12:30am 19.8 21.8 16.1 79 2.2 CALM 0 0 0 0 1011.2 1011.1 0.0
10/12:00am 20.2 22.2 16.0 77 2.5 CALM 0 0 0 0 1011.3 1011.2 0.0
 
Date/Time
WST
Temp
°C
App
Temp
°C
Dew
Point
°C
Rel
Hum
%
Delta-T
°C
Wind Press
QNH
hPa
Press
MSL
hPa
Rain since
9am
mm
Dir  Spd
km/h
Gust
km/h
Spd
kts
Gust
kts
09/11:30pm 20.7 22.7 15.9 74 2.9 CALM 0 0 0 0 1011.3 1011.2 0.0
09/11:00pm 21.3 23.5 16.5 74 2.9 CALM 0 0 0 0 1011.4 1011.3 0.0
09/10:30pm 21.7 23.7 16.0 70 3.4 CALM 0 0 0 0 1011.1 1011.0 0.0
09/10:00pm 21.6 23.5 15.7 69 3.5 CALM 0 0 0 0 1011.0 1010.9 0.0

Other Formats:

Comma delimited format used in spreadsheet applications
http://www.bom.gov.au/fwo/IDW60801/IDW60801.94608.axf

JavaScript Object Notation format (JSON) in row-major order
http://www.bom.gov.au/fwo/IDW60801/IDW60801.94608.json